Time;durP1;ratioP1;P1;durP2;ratioP2;P2;SDS_P1;SDS_P2;PMS_P1;PMS_P2;Temp;Humidity;BMP_temperature;BMP_pressure;BME280_temperature;BME280_humidity;BME280_pressure;Samples;Min_cycle;Max_cycle;Signal;HPM_P1;HPM_P2
2023/04/23 00:00:11;;;;;;;64.47;31.75;;;;;;;9.52;81.35;100696.44;5008176;28;20120;-93
2023/04/23 00:02:37;;;;;;;69.93;31.77;;;;;;;9.56;81.75;100684.84;5007828;28;20026;-93
2023/04/23 00:05:05;;;;;;;63.85;30.80;;;;;;;9.64;81.29;100692.44;5005363;28;20481;-95
2023/04/23 00:07:31;;;;;;;59.72;29.75;;;;;;;9.57;80.73;100685.69;5023077;28;20111;-93
2023/04/23 00:09:57;;;;;;;62.78;29.55;;;;;;;9.53;81.04;100682.31;5012246;28;20172;-94
2023/04/23 00:12:22;;;;;;;59.90;29.08;;;;;;;9.46;80.53;100667.63;5016994;28;20142;-92
2023/04/23 00:14:48;;;;;;;58.20;29.95;;;;;;;9.45;81.23;100681.75;5006072;28;20030;-93
2023/04/23 00:17:14;;;;;;;60.85;29.75;;;;;;;9.37;81.48;100676.78;5008683;28;21503;-92
2023/04/23 00:19:39;;;;;;;61.17;29.52;;;;;;;9.37;81.39;100663.56;5027178;28;20103;-92
2023/04/23 00:22:05;;;;;;;57.50;28.52;;;;;;;9.37;81.11;100665.31;5013360;28;20025;-93
2023/04/23 00:24:32;;;;;;;57.95;30.42;;;;;;;9.35;81.97;100660.13;5005570;28;20269;-93
2023/04/23 00:26:58;;;;;;;59.28;27.23;;;;;;;9.17;82.61;100647.63;5011213;28;20043;-93
2023/04/23 00:29:23;;;;;;;58.67;27.85;;;;;;;9.29;82.53;100665.63;5008076;28;20489;-93
2023/04/23 00:31:48;;;;;;;55.53;27.95;;;;;;;9.32;81.92;100662.00;5009476;28;20037;-93
2023/04/23 00:34:14;;;;;;;57.70;26.88;;;;;;;9.32;81.88;100662.00;5013912;28;20036;-92
2023/04/23 00:36:39;;;;;;;55.15;27.50;;;;;;;9.31;81.91;100660.28;5030150;28;20386;-93
2023/04/23 00:39:04;;;;;;;55.85;27.77;;;;;;;9.31;82.15;100666.44;5009460;28;20099;-93
2023/04/23 00:41:30;;;;;;;54.25;27.45;;;;;;;9.27;82.45;100658.69;5007255;28;20138;-92
2023/04/23 00:43:56;;;;;;;53.13;27.98;;;;;;;9.26;82.58;100651.69;5029355;28;20638;-93
2023/04/23 00:46:23;;;;;;;51.08;26.08;;;;;;;9.24;81.92;100646.50;5032034;28;20030;-92
2023/04/23 00:48:49;;;;;;;57.17;27.73;;;;;;;9.22;82.30;100647.44;5021106;28;20033;-93
2023/04/23 00:51:15;;;;;;;52.28;26.08;;;;;;;9.25;81.91;100649.97;5023160;28;20554;-94
2023/04/23 00:53:40;;;;;;;60.20;29.63;;;;;;;9.17;82.98;100637.94;5004749;28;20040;-92
2023/04/23 00:56:07;;;;;;;53.20;27.10;;;;;;;9.25;82.42;100653.47;5014562;28;20025;-93
2023/04/23 00:58:33;;;;;;;54.65;28.23;;;;;;;9.17;83.16;100640.56;5009530;28;20446;-93
2023/04/23 01:00:58;;;;;;;50.72;26.00;;;;;;;9.15;82.29;100641.56;5011730;28;20116;-93
2023/04/23 01:03:25;;;;;;;56.72;27.95;;;;;;;9.17;82.13;100635.28;5032227;28;20052;-93
2023/04/23 01:05:51;;;;;;;51.75;26.92;;;;;;;9.17;82.73;100630.00;5012154;28;20055;-92
2023/04/23 01:08:17;;;;;;;51.30;27.25;;;;;;;9.20;83.00;100632.53;5020322;28;20021;-93
2023/04/23 01:10:44;;;;;;;53.42;26.42;;;;;;;9.18;82.78;100615.91;5028112;28;20034;-93
2023/04/23 01:13:11;;;;;;;54.50;27.45;;;;;;;9.16;82.64;100623.03;5035778;28;20509;-94
2023/04/23 01:15:36;;;;;;;49.28;25.80;;;;;;;9.24;82.47;100622.75;5018750;28;20037;-92
2023/04/23 01:18:03;;;;;;;56.58;29.23;;;;;;;9.17;83.32;100622.09;5007386;28;20029;-92
2023/04/23 01:20:28;;;;;;;51.80;26.33;;;;;;;9.17;82.54;100610.69;5025222;28;20096;-93
2023/04/23 01:22:54;;;;;;;49.95;27.92;;;;;;;9.17;83.09;100614.19;5024523;28;20117;-93
2023/04/23 01:25:19;;;;;;;46.80;25.83;;;;;;;9.17;82.73;100606.28;5015259;28;20071;-93
2023/04/23 01:27:44;;;;;;;53.33;25.27;;;;;;;9.14;83.23;100605.56;5007688;28;20040;-92
2023/04/23 01:30:10;;;;;;;47.92;26.10;;;;;;;9.16;83.54;100612.47;5015020;28;20495;-92
2023/04/23 01:32:36;;;;;;;46.33;24.90;;;;;;;9.11;83.31;100601.25;5011698;28;20033;-92
2023/04/23 01:35:03;;;;;;;45.50;25.38;;;;;;;9.15;83.27;100621.31;5020975;28;20056;-93
2023/04/23 01:37:29;;;;;;;43.33;23.63;;;;;;;9.08;83.47;100619.81;5008772;28;20033;-93
2023/04/23 01:39:55;;;;;;;48.22;24.90;;;;;;;9.03;83.60;100610.34;5014446;28;20105;-93
2023/04/23 01:42:22;;;;;;;44.15;24.60;;;;;;;8.99;83.93;100622.78;5008793;28;20033;-93
2023/04/23 01:44:47;;;;;;;46.65;25.70;;;;;;;8.97;84.49;100622.00;5026088;28;20496;-92
2023/04/23 01:47:13;;;;;;;43.80;24.50;;;;;;;8.94;84.60;100615.06;5016844;28;20049;-92
2023/04/23 01:49:38;;;;;;;46.10;26.08;;;;;;;8.91;84.36;100598.50;5010669;28;20029;-92
2023/04/23 01:52:04;;;;;;;42.83;21.40;;;;;;;8.99;84.66;100609.59;5027416;28;20037;-93
2023/04/23 01:54:29;;;;;;;43.47;24.02;;;;;;;8.97;84.93;100600.91;5027339;28;20105;-93
2023/04/23 01:56:54;;;;;;;39.50;23.20;;;;;;;9.07;84.56;100611.97;5012652;28;20508;-92
2023/04/23 01:59:21;;;;;;;51.65;26.83;;;;;;;9.06;85.17;100608.47;5021584;28;20021;-94
2023/04/23 02:01:47;;;;;;;48.33;27.25;;;;;;;9.06;85.47;100604.97;5027665;28;20386;-92
2023/04/23 02:04:14;;;;;;;42.50;23.27;;;;;;;9.02;86.13;100613.91;5030515;28;20064;-92
2023/04/23 02:06:41;;;;;;;46.15;25.75;;;;;;;8.96;86.54;100607.09;5023810;28;20579;-93
2023/04/23 02:09:07;;;;;;;44.95;25.17;;;;;;;8.87;86.64;100596.91;5009838;28;20021;-92
2023/04/23 02:11:32;;;;;;;42.10;24.40;;;;;;;8.90;86.25;100602.03;5003529;28;20028;-92
2023/04/23 02:13:59;;;;;;;40.70;24.33;;;;;;;8.86;86.58;100603.94;5026068;28;20532;-92
2023/04/23 02:16:25;;;;;;;42.33;24.80;;;;;;;8.81;87.17;100603.25;5030025;28;20548;-93
2023/04/23 02:18:50;;;;;;;41.40;23.67;;;;;;;8.84;87.09;100602.28;5019831;28;20017;-93
2023/04/23 02:21:16;;;;;;;42.80;24.55;;;;;;;8.78;86.88;100590.19;5027772;28;20035;-93
2023/04/23 02:23:41;;;;;;;39.00;23.35;;;;;;;8.85;86.63;100593.44;5022626;28;20026;-93
2023/04/23 02:26:06;;;;;;;39.55;22.58;;;;;;;8.85;86.45;100585.53;5007743;28;20029;-93
2023/04/23 02:28:32;;;;;;;42.00;24.00;;;;;;;8.84;86.81;100583.81;4999053;28;20430;-93
2023/04/23 02:30:57;;;;;;;40.28;22.45;;;;;;;8.90;86.84;100588.84;5011649;28;20025;-93
2023/04/23 02:33:23;;;;;;;40.50;23.25;;;;;;;8.84;87.45;100586.47;5003450;28;20099;-92
2023/04/23 02:35:48;;;;;;;39.55;24.13;;;;;;;8.84;87.28;100587.31;5001692;28;20117;-94
2023/04/23 02:38:13;;;;;;;42.55;24.08;;;;;;;8.92;87.46;100590.53;5024401;28;20636;-93
2023/04/23 02:40:39;;;;;;;41.00;24.15;;;;;;;8.97;87.24;100590.38;5025945;28;20037;-93
2023/04/23 02:43:04;;;;;;;41.88;23.05;;;;;;;9.01;87.21;100583.19;5014270;28;20029;-92
2023/04/23 02:45:29;;;;;;;35.63;21.42;;;;;;;9.16;86.51;100594.00;5016452;28;20028;-92
2023/04/23 02:47:55;;;;;;;37.90;22.63;;;;;;;9.26;85.98;100593.66;5026592;28;20025;-94
2023/04/23 02:50:20;;;;;;;34.15;21.13;;;;;;;9.27;85.21;100596.22;5028867;28;20021;-93
2023/04/23 02:52:47;;;;;;;38.70;22.23;;;;;;;9.15;85.36;100580.91;5015449;28;20124;-93
2023/04/23 02:55:12;;;;;;;39.08;21.92;;;;;;;8.88;86.39;100580.16;5023494;28;20374;-93
2023/04/23 02:57:38;;;;;;;36.42;21.65;;;;;;;8.97;85.08;100586.88;5018600;28;20034;-94
2023/04/23 03:00:07;;;;;;;35.97;22.40;;;;;;;9.05;85.55;100585.66;5003368;28;20021;-93
2023/04/23 03:02:32;;;;;;;35.38;21.35;;;;;;;8.90;86.47;100592.34;5017548;28;20033;-93
2023/04/23 03:04:58;;;;;;;33.60;20.52;;;;;;;8.86;85.65;100587.25;5012265;28;20029;-93
2023/04/23 03:07:23;;;;;;;34.45;20.77;;;;;;;8.90;85.91;100594.97;5029148;28;20025;-93
2023/04/23 03:09:48;;;;;;;33.67;20.70;;;;;;;8.92;86.43;100584.41;5010081;28;20034;-92
2023/04/23 03:12:14;;;;;;;32.22;19.50;;;;;;;8.99;85.96;100583.25;5013390;28;20543;-93
2023/04/23 03:14:39;;;;;;;32.83;19.65;;;;;;;9.02;86.19;100575.22;5026534;28;20022;-93
2023/04/23 03:17:05;;;;;;;32.40;19.45;;;;;;;9.11;85.97;100587.22;5009355;28;20049;-92
2023/04/23 03:19:30;;;;;;;35.58;21.30;;;;;;;9.12;86.05;100575.72;5017663;28;20029;-93
2023/04/23 03:21:56;;;;;;;38.58;21.45;;;;;;;9.15;85.91;100575.63;5012823;28;20026;-93
2023/04/23 03:24:21;;;;;;;37.92;21.30;;;;;;;9.13;85.67;100562.47;5031940;28;20029;-92
2023/04/23 03:26:46;;;;;;;35.63;20.95;;;;;;;9.20;85.98;100565.75;5012226;28;20045;-93
2023/04/23 03:29:12;;;;;;;33.97;20.40;;;;;;;9.26;85.15;100557.59;5015867;28;20033;-93
2023/04/23 03:31:37;;;;;;;37.20;21.70;;;;;;;9.16;85.76;100562.38;5021801;28;20028;-93
2023/04/23 03:34:02;;;;;;;33.67;21.75;;;;;;;9.20;85.75;100576.31;5006690;28;20108;-93
2023/04/23 03:36:28;;;;;;;34.60;21.45;;;;;;;9.00;86.38;100571.81;5012250;28;20037;-93
2023/04/23 03:38:53;;;;;;;37.75;22.95;;;;;;;9.03;87.33;100569.03;5029809;28;20030;-93
2023/04/23 03:41:18;;;;;;;33.72;20.73;;;;;;;9.25;86.52;100565.56;5031736;28;20033;-95
2023/04/23 03:43:44;;;;;;;36.00;21.08;;;;;;;9.17;86.86;100566.72;5025248;28;20584;-92
2023/04/23 03:46:09;;;;;;;32.65;20.70;;;;;;;8.93;86.94;100559.75;5035385;28;20032;-92
2023/04/23 03:48:34;;;;;;;33.38;19.88;;;;;;;8.97;87.05;100564.00;5013309;28;20025;-93
2023/04/23 03:51:00;;;;;;;35.78;21.52;;;;;;;9.02;87.85;100571.72;5007426;28;20424;-93
2023/04/23 03:53:25;;;;;;;37.45;22.45;;;;;;;9.00;87.87;100569.16;5015741;28;20046;-93
2023/04/23 03:55:50;;;;;;;34.65;20.23;;;;;;;9.00;87.60;100568.28;5006803;28;20111;-93
2023/04/23 03:58:16;;;;;;;34.08;20.98;;;;;;;9.09;87.63;100566.19;5021133;28;20144;-94
2023/04/23 04:00:42;;;;;;;29.88;19.13;;;;;;;9.14;87.50;100544.91;5021990;28;20061;-94
2023/04/23 04:03:07;;;;;;;33.38;21.05;;;;;;;9.20;87.54;100558.69;5027871;28;20037;-92
2023/04/23 04:05:33;;;;;;;29.20;19.85;;;;;;;9.27;87.39;100561.09;5032365;28;20017;-93
2023/04/23 04:07:59;;;;;;;31.48;19.63;;;;;;;9.36;87.11;100566.00;5002057;28;20033;-92
2023/04/23 04:10:24;;;;;;;30.60;18.50;;;;;;;9.45;85.97;100569.13;5026382;28;20428;-93
2023/04/23 04:12:50;;;;;;;32.75;19.98;;;;;;;9.52;86.48;100559.22;5011225;28;20508;-93
2023/04/23 04:15:16;;;;;;;27.75;17.98;;;;;;;9.70;85.98;100573.44;5007522;28;20029;-93
2023/04/23 04:17:44;;;;;;;28.65;18.30;;;;;;;9.78;85.92;100578.38;5017262;28;20100;-94
2023/04/23 04:20:10;;;;;;;29.92;19.10;;;;;;;9.70;86.23;100568.16;5012086;28;20101;-93
2023/04/23 04:22:35;;;;;;;28.35;19.05;;;;;;;9.80;85.85;100571.28;5006615;28;20119;-93
2023/04/23 04:25:01;;;;;;;25.40;17.42;;;;;;;9.62;86.78;100570.25;5012277;28;20021;-92
2023/04/23 04:27:26;;;;;;;28.75;17.67;;;;;;;9.60;87.17;100575.56;5021750;28;20032;-93
2023/04/23 04:29:51;;;;;;;28.77;18.38;;;;;;;9.54;87.24;100564.41;5025644;28;20048;-93
2023/04/23 04:32:17;;;;;;;28.75;18.05;;;;;;;9.68;86.82;100583.19;5011454;28;20030;-93
2023/04/23 04:34:43;;;;;;;28.70;17.05;;;;;;;9.83;86.39;100587.84;5012285;28;20032;-92
2023/04/23 04:37:09;;;;;;;24.92;17.77;;;;;;;9.93;86.18;100586.56;5010341;28;20400;-94
2023/04/23 04:39:35;;;;;;;28.77;18.05;;;;;;;9.97;85.77;100581.97;5029085;28;20067;-93
2023/04/23 04:42:01;;;;;;;25.95;16.67;;;;;;;9.99;85.31;100581.94;5007680;28;20018;-93
2023/04/23 04:44:27;;;;;;;28.45;18.52;;;;;;;9.92;85.81;100578.69;5006857;28;20026;-93
2023/04/23 04:46:53;;;;;;;25.90;17.17;;;;;;;9.90;85.75;100567.34;4992943;28;20119;-91
2023/04/23 04:49:18;;;;;;;28.23;18.20;;;;;;;9.90;85.90;100573.47;5030176;28;20033;-93
2023/04/23 04:51:43;;;;;;;28.25;17.88;;;;;;;9.80;85.43;100566.84;5011454;28;20049;-93
2023/04/23 04:54:09;;;;;;;24.25;15.50;;;;;;;9.80;85.03;100577.41;5022731;28;20025;-93
2023/04/23 04:56:34;;;;;;;24.35;16.73;;;;;;;9.78;85.16;100579.25;5009636;28;20036;-92
2023/04/23 04:59:00;;;;;;;22.75;16.55;;;;;;;9.71;85.13;100562.81;5026383;28;20124;-92
2023/04/23 05:01:27;;;;;;;26.80;17.52;;;;;;;9.78;85.69;100581.88;5027072;28;20044;-93
2023/04/23 05:03:53;;;;;;;26.65;17.13;;;;;;;9.77;85.39;100580.16;5029806;28;20401;-93
2023/04/23 05:06:18;;;;;;;29.13;16.90;;;;;;;9.77;85.18;100588.09;5025090;28;20544;-93
2023/04/23 05:08:46;;;;;;;24.80;15.57;;;;;;;9.75;85.47;100582.03;5008737;28;20265;-93
2023/04/23 05:11:13;;;;;;;24.73;16.73;;;;;;;9.75;85.21;100581.19;5034687;28;20115;-94
2023/04/23 05:13:40;;;;;;;22.80;15.43;;;;;;;9.85;84.78;100582.50;5030210;28;20049;-93
2023/04/23 05:16:05;;;;;;;26.70;16.75;;;;;;;9.85;84.69;100572.81;5007005;28;20397;-93
2023/04/23 05:18:30;;;;;;;24.55;15.40;;;;;;;9.93;85.34;100581.28;5008383;28;20025;-93
2023/04/23 05:20:55;;;;;;;27.20;16.88;;;;;;;9.89;85.99;100576.19;5011088;28;20435;-93
2023/04/23 05:23:21;;;;;;;23.02;14.93;;;;;;;9.83;85.65;100565.84;5030056;28;20026;-94
2023/04/23 05:25:46;;;;;;;26.65;15.88;;;;;;;9.88;85.27;100561.25;5012333;28;20542;-93
2023/04/23 05:28:12;;;;;;;26.85;17.10;;;;;;;10.05;85.60;100582.53;5022798;28;20036;-93
2023/04/23 05:30:37;;;;;;;29.27;18.05;;;;;;;10.05;86.13;100585.16;5023506;28;20056;-94
2023/04/23 05:33:02;;;;;;;24.10;16.10;;;;;;;10.25;85.03;100579.06;5012631;28;20041;-93
2023/04/23 05:35:28;;;;;;;22.75;16.30;;;;;;;10.40;85.02;100582.84;5002200;28;20358;-93
2023/04/23 05:37:53;;;;;;;25.17;17.35;;;;;;;10.56;84.59;100585.66;5018668;28;20116;-93
2023/04/23 05:40:18;;;;;;;27.75;16.88;;;;;;;10.62;84.62;100604.75;5010119;28;20021;-93
2023/04/23 05:42:43;;;;;;;24.10;15.48;;;;;;;10.67;84.42;100592.19;5027118;28;20029;-93
2023/04/23 05:45:09;;;;;;;23.45;16.40;;;;;;;10.71;83.97;100601.69;5019687;28;20059;-93
2023/04/23 05:47:35;;;;;;;24.33;15.10;;;;;;;10.66;84.34;100571.97;5008345;28;20091;-93
2023/04/23 05:50:01;;;;;;;25.90;16.60;;;;;;;10.70;84.13;100565.63;5031456;28;20060;-93
2023/04/23 05:52:29;;;;;;;23.27;15.63;;;;;;;10.57;84.38;100571.50;5031771;28;20021;-92
2023/04/23 05:54:54;;;;;;;21.50;15.00;;;;;;;10.56;84.70;100570.66;5030339;28;20025;-92
2023/04/23 05:57:20;;;;;;;19.73;14.85;;;;;;;10.69;83.94;100565.69;5027514;28;20987;-93
2023/04/23 05:59:45;;;;;;;23.40;14.85;;;;;;;10.86;83.73;100573.69;5008866;28;20029;-92
2023/04/23 06:02:10;;;;;;;24.58;16.50;;;;;;;10.84;83.76;100565.00;5006072;28;20021;-92
2023/04/23 06:04:36;;;;;;;27.35;15.35;;;;;;;10.91;83.72;100573.50;5012185;28;20060;-93
2023/04/23 06:07:02;;;;;;;20.60;14.45;;;;;;;10.98;83.20;100580.22;5025106;28;20181;-93
2023/04/23 06:09:27;;;;;;;21.02;14.27;;;;;;;11.03;83.69;100578.22;5007747;28;20076;-92
2023/04/23 06:11:53;;;;;;;19.70;14.00;;;;;;;11.15;82.56;100584.75;5029362;28;20026;-93
2023/04/23 06:14:19;;;;;;;20.48;13.93;;;;;;;11.11;82.84;100569.94;5032127;28;20059;-93
2023/04/23 06:16:45;;;;;;;19.10;13.98;;;;;;;11.28;82.53;100585.00;5007362;28;20045;-92
2023/04/23 06:19:10;;;;;;;20.08;13.35;;;;;;;11.32;82.88;100565.41;5023592;28;20091;-92
2023/04/23 06:21:36;;;;;;;19.55;14.60;;;;;;;11.27;82.50;100546.25;5007022;28;20034;-93
2023/04/23 06:24:01;;;;;;;20.10;13.70;;;;;;;11.47;82.64;100564.66;5012530;28;20049;-93
2023/04/23 06:26:26;;;;;;;18.88;13.60;;;;;;;11.46;81.13;100544.44;5030503;28;20028;-91
2023/04/23 06:28:51;;;;;;;19.90;14.48;;;;;;;11.55;81.45;100559.88;5038559;28;20435;-92
2023/04/23 06:31:18;;;;;;;20.73;14.00;;;;;;;11.61;80.09;100538.41;5009301;28;20026;-92
2023/04/23 06:33:43;;;;;;;21.65;12.57;;;;;;;11.76;79.62;100544.72;5013431;28;20261;-92
2023/04/23 06:36:09;;;;;;;18.23;12.73;;;;;;;11.83;79.73;100540.84;5019657;28;20057;-93
2023/04/23 06:38:35;;;;;;;19.35;12.30;;;;;;;11.89;79.99;100534.38;5004671;28;20022;-93
2023/04/23 06:41:00;;;;;;;17.15;13.15;;;;;;;11.99;78.74;100538.31;5010778;28;20039;-93
2023/04/23 06:43:26;;;;;;;18.30;12.57;;;;;;;12.10;79.42;100537.75;5022800;28;20018;-93
2023/04/23 06:45:51;;;;;;;20.67;12.05;;;;;;;12.18;78.05;100538.22;5007012;28;20025;-94
2023/04/23 06:48:17;;;;;;;17.80;11.15;;;;;;;12.05;79.51;100530.03;5012513;28;20055;-94
2023/04/23 06:50:43;;;;;;;14.10;10.80;;;;;;;12.18;79.37;100546.19;5015719;28;20029;-93
2023/04/23 06:53:08;;;;;;;16.45;11.20;;;;;;;12.21;78.59;100544.19;5024157;28;20037;-92
2023/04/23 06:55:34;;;;;;;17.45;10.82;;;;;;;12.24;79.26;100537.91;5032242;28;20088;-93
2023/04/23 06:57:59;;;;;;;16.20;10.15;;;;;;;12.20;77.55;100517.78;5007670;28;20550;-92
2023/04/23 07:00:25;;;;;;;14.40;10.30;;;;;;;12.51;78.88;100530.31;5019188;28;20030;-92
2023/04/23 07:02:50;;;;;;;14.88;10.43;;;;;;;12.55;78.35;100529.19;5020546;28;20116;-92
2023/04/23 07:05:17;;;;;;;11.88;8.20;;;;;;;12.71;76.53;100532.72;5007825;28;20619;-92
2023/04/23 07:07:43;;;;;;;14.07;9.45;;;;;;;12.74;76.50;100523.75;5013077;28;20068;-92
2023/04/23 07:10:12;;;;;;;13.60;9.02;;;;;;;12.80;77.39;100527.88;5009121;28;20045;-93
2023/04/23 07:12:38;;;;;;;14.63;9.10;;;;;;;12.92;76.58;100535.19;5023839;28;20040;-93
2023/04/23 07:15:05;;;;;;;16.52;10.30;;;;;;;13.08;77.60;100522.75;5008721;28;20021;-92
2023/04/23 07:17:31;;;;;;;12.00;7.20;;;;;;;13.06;75.65;100519.34;5006988;28;20404;-93
2023/04/23 07:19:56;;;;;;;12.93;7.85;;;;;;;13.16;74.29;100517.88;5023667;28;20029;-93
2023/04/23 07:22:23;;;;;;;12.13;7.63;;;;;;;13.35;75.16;100520.38;5008298;28;20029;-93
2023/04/23 07:24:48;;;;;;;13.38;7.95;;;;;;;13.40;74.04;100528.09;5001929;28;20088;-93
2023/04/23 07:27:13;;;;;;;11.10;7.25;;;;;;;13.47;73.65;100521.47;5007874;28;20414;-93
2023/04/23 07:29:38;;;;;;;10.20;7.38;;;;;;;13.43;74.93;100528.78;5026627;28;20030;-92
2023/04/23 07:32:04;;;;;;;11.48;7.10;;;;;;;13.52;74.13;100522.06;5025189;28;20029;-93
2023/04/23 07:34:29;;;;;;;12.63;7.15;;;;;;;13.41;74.60;100521.84;5007970;28;20116;-93
2023/04/23 07:36:56;;;;;;;8.57;6.05;;;;;;;13.43;73.35;100527.91;5029923;28;20096;-95
2023/04/23 07:39:21;;;;;;;8.00;4.90;;;;;;;13.59;72.30;100525.25;5011023;28;20536;-93
2023/04/23 07:41:46;;;;;;;11.45;5.90;;;;;;;13.85;72.59;100516.63;5007347;28;20083;-94
2023/04/23 07:44:12;;;;;;;12.13;6.63;;;;;;;14.08;71.04;100507.25;5035580;28;20078;-93
2023/04/23 07:46:37;;;;;;;13.48;5.85;;;;;;;14.60;71.31;100508.59;5024051;28;20021;-94
2023/04/23 07:49:02;;;;;;;10.55;5.80;;;;;;;14.60;69.57;100500.59;5016361;28;20401;-94
2023/04/23 07:51:28;;;;;;;9.55;5.88;;;;;;;14.73;67.83;100509.50;5014468;28;20119;-93
2023/04/23 07:53:53;;;;;;;10.43;5.97;;;;;;;15.03;70.34;100504.06;5013529;28;20157;-94
2023/04/23 07:56:21;;;;;;;13.05;4.97;;;;;;;15.17;67.54;100508.50;5034690;28;20532;-95
2023/04/23 07:58:46;;;;;;;7.93;5.00;;;;;;;15.56;66.41;100507.69;5028474;28;20079;-94
2023/04/23 08:01:11;;;;;;;9.50;5.47;;;;;;;15.88;65.62;100504.72;5011822;28;20022;-94
2023/04/23 08:03:37;;;;;;;10.82;5.03;;;;;;;15.88;64.66;100504.72;5012679;28;20087;-94
2023/04/23 08:06:03;;;;;;;8.15;4.95;;;;;;;15.85;63.37;100487.09;5014322;28;20116;-93
2023/04/23 08:08:29;;;;;;;10.38;4.70;;;;;;;16.15;64.60;100510.00;5004285;28;20432;-93
2023/04/23 08:10:54;;;;;;;8.48;4.30;;;;;;;15.95;65.42;100485.56;5026479;28;20034;-93
2023/04/23 08:13:20;;;;;;;8.18;3.90;;;;;;;15.98;64.59;100489.81;5013923;28;20052;-95
2023/04/23 08:15:45;;;;;;;7.50;3.83;;;;;;;16.07;63.03;100494.50;4998423;28;1055115;-93
2023/04/23 08:18:10;;;;;;;9.02;4.20;;;;;;;16.10;61.36;100491.66;5021924;28;20029;-94
2023/04/23 08:20:36;;;;;;;8.35;4.47;;;;;;;16.49;62.62;100493.34;5011363;28;20033;-92
2023/04/23 08:23:02;;;;;;;8.98;3.35;;;;;;;16.76;61.07;100492.38;5014270;28;20031;-93
2023/04/23 08:25:28;;;;;;;5.18;3.25;;;;;;;17.28;59.86;100489.44;5004197;28;20107;-93
2023/04/23 08:27:53;;;;;;;5.80;3.60;;;;;;;17.36;57.52;100498.72;5020688;28;20053;-93
2023/04/23 08:30:19;;;;;;;11.38;3.88;;;;;;;16.65;59.17;100479.78;5017021;28;20042;-92
2023/04/23 08:32:48;;;;;;;7.93;3.17;;;;;;;17.19;59.56;100490.13;5019421;28;20030;-91
2023/04/23 08:35:14;;;;;;;7.55;3.00;;;;;;;17.54;55.93;100484.00;5019327;28;20555;-89
2023/04/23 08:37:39;;;;;;;7.80;3.50;;;;;;;17.69;58.70;100488.19;5019564;28;20120;-90
2023/04/23 08:40:06;;;;;;;6.63;2.85;;;;;;;17.90;57.30;100471.50;5006686;28;20390;-90
2023/04/23 08:42:42;;;;;;;6.70;2.65;;;;;;;18.39;54.33;100489.13;5012662;28;20044;-91
2023/04/23 08:45:08;;;;;;;8.75;2.60;;;;;;;18.65;53.75;100485.22;5024424;28;20481;-91
2023/04/23 08:47:34;;;;;;;5.45;1.90;;;;;;;18.59;53.85;100475.84;5018783;28;20088;-91
2023/04/23 08:50:02;;;;;;;6.63;2.70;;;;;;;18.53;54.09;100494.22;5019220;28;20048;-91
2023/04/23 08:52:32;;;;;;;6.72;2.40;;;;;;;18.69;54.25;100469.78;5028025;28;20539;-91
2023/04/23 08:54:59;;;;;;;11.73;2.97;;;;;;;19.16;52.85;100470.44;5009464;28;20388;-91
2023/04/23 08:57:25;;;;;;;7.03;2.90;;;;;;;19.17;52.93;100482.91;5005227;28;20025;-91
2023/04/23 08:59:51;;;;;;;6.80;2.50;;;;;;;19.22;49.04;100468.13;5015068;28;20040;-92
2023/04/23 09:02:17;;;;;;;8.15;2.20;;;;;;;19.17;48.90;100464.97;5021789;28;20048;-93
2023/04/23 09:04:44;;;;;;;7.05;2.25;;;;;;;19.58;49.17;100477.63;5016608;28;20480;-91
2023/04/23 09:07:12;;;;;;;6.95;2.38;;;;;;;20.17;48.26;100484.28;5023293;28;20029;-94
2023/04/23 09:09:39;;;;;;;7.28;2.22;;;;;;;20.38;47.30;100471.72;5017890;28;20143;-93
2023/04/23 09:12:08;;;;;;;5.20;2.05;;;;;;;20.43;47.78;100475.81;5013312;28;20025;-91
2023/04/23 09:14:36;;;;;;;5.68;1.95;;;;;;;20.08;47.97;100482.41;5009669;28;20123;-91
2023/04/23 09:17:02;;;;;;;5.60;2.17;;;;;;;19.70;47.82;100473.09;5003563;28;20054;-93
2023/04/23 09:19:28;;;;;;;6.47;2.15;;;;;;;19.69;49.73;100470.56;5024366;28;20067;-92
2023/04/23 09:21:54;;;;;;;5.07;2.00;;;;;;;20.11;46.41;100468.72;5008541;28;20072;-93
2023/04/23 09:24:24;;;;;;;7.90;2.22;;;;;;;20.40;49.74;100471.56;5015024;28;20140;-94
2023/04/23 09:26:50;;;;;;;3.78;1.52;;;;;;;20.57;48.19;100456.69;5021742;28;20055;-93
2023/04/23 09:29:22;;;;;;;5.35;1.90;;;;;;;19.94;48.72;100461.25;5014286;28;20028;-93
2023/04/23 09:31:52;;;;;;;6.32;2.08;;;;;;;19.64;46.67;100456.69;5005803;28;20080;-92
2023/04/23 09:34:19;;;;;;;10.30;2.13;;;;;;;20.55;48.09;100443.38;5006116;28;20028;-93
2023/04/23 09:36:49;;;;;;;4.03;1.83;;;;;;;21.33;42.61;100455.22;5025698;28;20041;-94
2023/04/23 09:39:16;;;;;;;5.85;1.77;;;;;;;22.33;40.43;100452.13;5027328;28;20505;-93
2023/04/23 09:41:41;;;;;;;3.53;1.60;;;;;;;22.03;41.68;100446.94;5005344;28;20029;-93
2023/04/23 09:44:11;;;;;;;5.03;1.50;;;;;;;21.56;41.91;100458.47;5006965;28;20056;-94
2023/04/23 09:46:41;;;;;;;6.85;1.90;;;;;;;20.80;43.45;100443.91;5008083;28;20662;-93
2023/04/23 09:49:08;;;;;;;8.45;1.85;;;;;;;20.86;42.61;100438.81;5010043;28;20038;-94
2023/04/23 09:51:39;;;;;;;6.97;1.63;;;;;;;20.79;42.24;100434.13;5031076;28;20024;-93
2023/04/23 09:54:13;;;;;;;5.57;1.87;;;;;;;20.27;43.54;100444.06;5022517;28;20025;-94
2023/04/23 09:56:39;;;;;;;4.95;1.75;;;;;;;19.77;46.21;100434.06;5008066;28;20036;-94
2023/04/23 09:59:28;;;;;;;4.43;1.73;;;;;;;18.98;45.17;100441.53;5006145;28;20096;-94
2023/04/23 10:01:54;;;;;;;3.22;1.40;;;;;;;19.04;45.80;100448.19;5007732;28;20036;-94
2023/04/23 10:04:24;;;;;;;5.35;2.17;;;;;;;18.97;47.48;100444.31;5025008;28;20037;-94
2023/04/23 10:07:01;;;;;;;4.35;1.65;;;;;;;18.67;45.99;100437.75;5021066;28;20485;-94
2023/04/23 10:09:28;;;;;;;5.72;1.63;;;;;;;18.44;46.73;100442.28;5029025;28;20049;-94
2023/04/23 10:11:55;;;;;;;3.17;1.45;;;;;;;18.36;47.60;100424.13;5030244;28;20048;-93
2023/04/23 10:14:22;;;;;;;3.63;1.40;;;;;;;18.45;47.86;100437.75;5007399;28;20025;-94
2023/04/23 10:16:50;;;;;;;5.13;1.42;;;;;;;18.34;47.97;100420.75;5028971;28;20069;-94
2023/04/23 10:19:21;;;;;;;5.90;1.50;;;;;;;18.71;47.33;100425.00;5020223;28;20034;-95
2023/04/23 10:21:49;;;;;;;6.55;1.65;;;;;;;18.66;47.53;100432.53;5025807;28;20376;-93
2023/04/23 10:24:19;;;;;;;6.32;1.90;;;;;;;18.73;48.11;100431.09;5037815;28;20032;-95
2023/04/23 10:26:47;;;;;;;4.03;1.50;;;;;;;18.84;48.17;100423.91;5020527;28;20077;-94
2023/04/23 10:29:15;;;;;;;6.07;2.10;;;;;;;18.99;48.57;100423.63;5031775;28;20017;-94
2023/04/23 10:31:42;;;;;;;6.60;1.60;;;;;;;18.88;50.37;100428.97;5006161;28;20030;-94
2023/04/23 10:34:11;;;;;;;6.70;1.67;;;;;;;18.86;49.62;100400.50;5022197;28;20029;-94
2023/04/23 10:36:37;;;;;;;6.22;2.33;;;;;;;19.07;49.97;100431.84;5029379;28;20033;-94
2023/04/23 10:39:06;;;;;;;3.47;1.77;;;;;;;19.15;48.80;100413.31;5005652;28;20036;-94
2023/04/23 10:41:39;;;;;;;5.95;1.63;;;;;;;18.79;50.02;100414.50;5014686;28;20030;-94
2023/04/23 10:44:06;;;;;;;;;;;;;;;18.72;47.33;100418.69;4992156;28;20092;-93
2023/04/23 10:46:32;;;;;;;6.85;2.10;;;;;;;18.22;49.57;100413.66;5025697;28;19913;-95
2023/04/23 10:49:08;;;;;;;4.15;1.70;;;;;;;18.06;50.68;100406.00;5014360;28;20419;-94
2023/04/23 10:51:35;;;;;;;7.13;1.60;;;;;;;18.24;50.05;100400.19;5017518;28;20063;-94
2023/04/23 10:54:02;;;;;;;7.10;1.90;;;;;;;18.52;49.30;100398.84;5016808;28;20032;-92
2023/04/23 10:56:27;;;;;;;5.57;1.65;;;;;;;18.20;50.60;100385.34;5009537;28;20333;-93
2023/04/23 10:58:53;;;;;;;4.90;1.67;;;;;;;18.40;50.24;100386.44;5026076;28;20392;-94
2023/04/23 11:01:24;;;;;;;4.57;1.95;;;;;;;18.81;46.89;100389.31;5015812;28;20029;-93
2023/04/23 11:03:51;;;;;;;6.35;1.90;;;;;;;18.63;49.18;100364.00;5027597;28;20041;-94
2023/04/23 11:06:48;;;;;;;4.90;1.75;;;;;;;18.86;47.61;100378.22;5025282;28;20056;-94
2023/04/23 11:09:31;;;;;;;3.55;1.60;;;;;;;18.87;47.17;100371.88;5026922;28;20481;-94
2023/04/23 11:11:58;;;;;;;6.00;1.80;;;;;;;18.39;48.45;100376.69;5028066;28;20033;-93
2023/04/23 11:14:41;;;;;;;5.32;1.88;;;;;;;18.10;48.59;100380.72;5011116;28;20037;-93